sensor_id;sensor_type;location;lat;lon;timestamp;pressure;altitude;pressure_sealevel;temperature;humidity
25420;BME280;13354;48.174;11.566;2023-03-14T00:02:17;94252.53;;;12.41;69.69
25420;BME280;13354;48.174;11.566;2023-03-14T00:04:42;94249.41;;;12.27;70.36
25420;BME280;13354;48.174;11.566;2023-03-14T00:07:09;94235.66;;;12.30;70.46
25420;BME280;13354;48.174;11.566;2023-03-14T00:09:35;94225.72;;;12.37;70.00
25420;BME280;13354;48.174;11.566;2023-03-14T00:12:00;94217.78;;;12.25;70.68
25420;BME280;13354;48.174;11.566;2023-03-14T00:14:25;94207.75;;;12.27;70.92
25420;BME280;13354;48.174;11.566;2023-03-14T00:16:51;94219.56;;;12.37;70.60
25420;BME280;13354;48.174;11.566;2023-03-14T00:19:16;94226.66;;;12.31;70.87
25420;BME280;13354;48.174;11.566;2023-03-14T00:21:41;94232.03;;;12.36;70.58
25420;BME280;13354;48.174;11.566;2023-03-14T00:24:07;94240.97;;;12.30;70.96
25420;BME280;13354;48.174;11.566;2023-03-14T00:26:32;94245.59;;;12.23;71.07
25420;BME280;13354;48.174;11.566;2023-03-14T00:28:57;94237.81;;;12.33;70.95
25420;BME280;13354;48.174;11.566;2023-03-14T00:31:23;94221.41;;;12.19;71.48
25420;BME280;13354;48.174;11.566;2023-03-14T00:33:48;94192.28;;;12.24;71.15
25420;BME280;13354;48.174;11.566;2023-03-14T00:36:14;94201.84;;;12.25;71.42
25420;BME280;13354;48.174;11.566;2023-03-14T00:38:40;94217.09;;;12.30;71.46
25420;BME280;13354;48.174;11.566;2023-03-14T00:41:07;94219.63;;;12.25;71.21
25420;BME280;13354;48.174;11.566;2023-03-14T00:43:32;94216.25;;;12.29;71.42
25420;BME280;13354;48.174;11.566;2023-03-14T00:45:57;94222.53;;;12.23;71.68
25420;BME280;13354;48.174;11.566;2023-03-14T00:48:23;94233.69;;;12.25;71.54
25420;BME280;13354;48.174;11.566;2023-03-14T00:50:48;94251.28;;;12.15;71.81
25420;BME280;13354;48.174;11.566;2023-03-14T00:53:13;94257.09;;;12.28;71.57
25420;BME280;13354;48.174;11.566;2023-03-14T00:55:39;94245.78;;;12.33;71.30
25420;BME280;13354;48.174;11.566;2023-03-14T00:58:05;94241.19;;;12.28;71.42
25420;BME280;13354;48.174;11.566;2023-03-14T01:00:30;94225.56;;;12.15;71.93
25420;BME280;13354;48.174;11.566;2023-03-14T01:02:55;94247.47;;;12.11;72.36
25420;BME280;13354;48.174;11.566;2023-03-14T01:05:21;94245.16;;;12.14;72.44
25420;BME280;13354;48.174;11.566;2023-03-14T01:07:46;94255.97;;;12.24;72.95
25420;BME280;13354;48.174;11.566;2023-03-14T01:10:12;94247.94;;;12.19;73.62
25420;BME280;13354;48.174;11.566;2023-03-14T01:12:37;94262.53;;;12.22;74.31
25420;BME280;13354;48.174;11.566;2023-03-14T01:15:02;94269.78;;;11.98;75.66
25420;BME280;13354;48.174;11.566;2023-03-14T01:17:27;94273.94;;;11.94;75.87
25420;BME280;13354;48.174;11.566;2023-03-14T01:19:53;94270.97;;;11.90;76.25
25420;BME280;13354;48.174;11.566;2023-03-14T01:22:18;94287.31;;;11.99;76.58
25420;BME280;13354;48.174;11.566;2023-03-14T01:24:43;94287.09;;;12.00;77.42
25420;BME280;13354;48.174;11.566;2023-03-14T01:27:08;94284.28;;;12.07;77.50
25420;BME280;13354;48.174;11.566;2023-03-14T01:29:33;94288.09;;;11.99;79.25
25420;BME280;13354;48.174;11.566;2023-03-14T01:31:59;94286.50;;;11.98;80.03
25420;BME280;13354;48.174;11.566;2023-03-14T01:34:24;94291.13;;;11.79;82.05
25420;BME280;13354;48.174;11.566;2023-03-14T01:36:49;94290.78;;;11.88;83.01
25420;BME280;13354;48.174;11.566;2023-03-14T01:39:14;94298.97;;;11.63;85.32
25420;BME280;13354;48.174;11.566;2023-03-14T01:41:40;94302.78;;;11.43;85.61
25420;BME280;13354;48.174;11.566;2023-03-14T01:44:05;94303.69;;;11.25;87.15
25420;BME280;13354;48.174;11.566;2023-03-14T01:46:35;94303.13;;;11.23;86.86
25420;BME280;13354;48.174;11.566;2023-03-14T01:49:02;94292.41;;;11.18;87.68
25420;BME280;13354;48.174;11.566;2023-03-14T01:51:30;94294.94;;;11.01;89.49
25420;BME280;13354;48.174;11.566;2023-03-14T01:54:01;94301.59;;;10.92;89.37
25420;BME280;13354;48.174;11.566;2023-03-14T01:56:28;94305.09;;;10.74;91.37
25420;BME280;13354;48.174;11.566;2023-03-14T01:58:53;94301.44;;;10.75;91.71
25420;BME280;13354;48.174;11.566;2023-03-14T02:01:20;94307.75;;;10.74;91.54
25420;BME280;13354;48.174;11.566;2023-03-14T02:03:50;94299.06;;;10.55;92.48
25420;BME280;13354;48.174;11.566;2023-03-14T02:06:20;94299.88;;;10.56;91.65
25420;BME280;13354;48.174;11.566;2023-03-14T02:08:46;94304.84;;;10.34;93.83
25420;BME280;13354;48.174;11.566;2023-03-14T02:11:14;94299.69;;;10.27;94.87
25420;BME280;13354;48.174;11.566;2023-03-14T02:13:39;94286.66;;;10.26;95.33
25420;BME280;13354;48.174;11.566;2023-03-14T02:16:04;94276.34;;;10.36;95.12
25420;BME280;13354;48.174;11.566;2023-03-14T02:18:30;94286.44;;;10.27;94.27
25420;BME280;13354;48.174;11.566;2023-03-14T02:23:25;94266.53;;;10.06;94.07
25420;BME280;13354;48.174;11.566;2023-03-14T02:25:57;94265.41;;;10.14;93.25
25420;BME280;13354;48.174;11.566;2023-03-14T02:28:25;94254.56;;;10.04;93.14
25420;BME280;13354;48.174;11.566;2023-03-14T02:30:51;94231.84;;;9.84;95.13
25420;BME280;13354;48.174;11.566;2023-03-14T02:33:17;94225.53;;;9.85;95.32
25420;BME280;13354;48.174;11.566;2023-03-14T02:40:36;94174.44;;;9.73;95.27
25420;BME280;13354;48.174;11.566;2023-03-14T02:43:01;94156.47;;;9.63;93.65
25420;BME280;13354;48.174;11.566;2023-03-14T02:48:34;94125.81;;;9.62;94.60
25420;BME280;13354;48.174;11.566;2023-03-14T02:51:00;94122.41;;;9.74;95.62
25420;BME280;13354;48.174;11.566;2023-03-14T02:53:36;94122.63;;;9.72;94.49
25420;BME280;13354;48.174;11.566;2023-03-14T02:56:02;94105.47;;;9.63;93.55
25420;BME280;13354;48.174;11.566;2023-03-14T02:58:27;94103.88;;;9.62;91.63
25420;BME280;13354;48.174;11.566;2023-03-14T03:00:53;94114.44;;;9.62;89.99
25420;BME280;13354;48.174;11.566;2023-03-14T03:03:18;94116.28;;;9.61;90.25
25420;BME280;13354;48.174;11.566;2023-03-14T03:05:47;94129.63;;;9.66;89.71
25420;BME280;13354;48.174;11.566;2023-03-14T03:08:12;94129.56;;;9.55;91.02
25420;BME280;13354;48.174;11.566;2023-03-14T03:10:37;94149.72;;;9.67;90.47
25420;BME280;13354;48.174;11.566;2023-03-14T03:13:03;94138.13;;;9.68;89.74
25420;BME280;13354;48.174;11.566;2023-03-14T03:15:28;94142.34;;;9.58;88.82
25420;BME280;13354;48.174;11.566;2023-03-14T03:17:53;94145.22;;;9.68;89.17
25420;BME280;13354;48.174;11.566;2023-03-14T03:20:18;94143.06;;;9.65;88.41
25420;BME280;13354;48.174;11.566;2023-03-14T03:22:44;94141.44;;;9.64;87.86
25420;BME280;13354;48.174;11.566;2023-03-14T03:25:09;94140.63;;;9.63;89.39
25420;BME280;13354;48.174;11.566;2023-03-14T03:27:35;94135.03;;;9.72;88.12
25420;BME280;13354;48.174;11.566;2023-03-14T03:30:01;94135.56;;;9.62;86.77
25420;BME280;13354;48.174;11.566;2023-03-14T03:32:26;94136.88;;;9.71;86.91
25420;BME280;13354;48.174;11.566;2023-03-14T03:34:52;94130.94;;;9.76;86.45
25420;BME280;13354;48.174;11.566;2023-03-14T03:37:17;94131.66;;;9.64;85.91
25420;BME280;13354;48.174;11.566;2023-03-14T03:39:42;94126.38;;;9.64;85.46
25420;BME280;13354;48.174;11.566;2023-03-14T03:42:08;94114.88;;;9.59;85.52
25420;BME280;13354;48.174;11.566;2023-03-14T03:44:33;94116.44;;;9.48;85.67
25420;BME280;13354;48.174;11.566;2023-03-14T03:46:58;94111.97;;;9.49;85.11
25420;BME280;13354;48.174;11.566;2023-03-14T03:49:23;94120.31;;;9.46;85.26
25420;BME280;13354;48.174;11.566;2023-03-14T03:51:49;94126.97;;;9.36;86.34
25420;BME280;13354;48.174;11.566;2023-03-14T03:54:14;94123.16;;;9.32;84.92
25420;BME280;13354;48.174;11.566;2023-03-14T03:56:39;94121.06;;;9.34;85.23
25420;BME280;13354;48.174;11.566;2023-03-14T03:59:04;94118.22;;;9.36;84.55
25420;BME280;13354;48.174;11.566;2023-03-14T04:01:29;94106.28;;;9.33;84.38
25420;BME280;13354;48.174;11.566;2023-03-14T04:03:55;94111.13;;;9.36;84.00
25420;BME280;13354;48.174;11.566;2023-03-14T04:06:20;94111.69;;;9.38;82.68
25420;BME280;13354;48.174;11.566;2023-03-14T04:08:45;94108.69;;;9.35;82.67
25420;BME280;13354;48.174;11.566;2023-03-14T04:11:10;94110.50;;;9.34;81.63
25420;BME280;13354;48.174;11.566;2023-03-14T04:13:35;94106.19;;;9.40;80.17
25420;BME280;13354;48.174;11.566;2023-03-14T04:16:01;94124.75;;;9.33;81.37
25420;BME280;13354;48.174;11.566;2023-03-14T04:18:26;94113.47;;;9.26;81.18
25420;BME280;13354;48.174;11.566;2023-03-14T04:20:52;94107.16;;;9.27;81.38
25420;BME280;13354;48.174;11.566;2023-03-14T04:23:18;94102.91;;;9.26;81.68
25420;BME280;13354;48.174;11.566;2023-03-14T04:25:43;94098.50;;;9.20;81.90
25420;BME280;13354;48.174;11.566;2023-03-14T04:28:08;94088.47;;;9.10;81.78
25420;BME280;13354;48.174;11.566;2023-03-14T04:30:33;94094.06;;;9.21;82.04
25420;BME280;13354;48.174;11.566;2023-03-14T04:32:58;94088.97;;;9.19;82.09
25420;BME280;13354;48.174;11.566;2023-03-14T04:35:24;94087.88;;;9.27;81.53
25420;BME280;13354;48.174;11.566;2023-03-14T04:37:49;94082.59;;;9.08;82.21
25420;BME280;13354;48.174;11.566;2023-03-14T04:40:14;94079.28;;;9.13;81.78
25420;BME280;13354;48.174;11.566;2023-03-14T04:42:39;94065.16;;;9.07;82.65
25420;BME280;13354;48.174;11.566;2023-03-14T04:45:05;94080.50;;;9.17;81.04
25420;BME280;13354;48.174;11.566;2023-03-14T04:47:30;94087.50;;;9.23;80.90
25420;BME280;13354;48.174;11.566;2023-03-14T04:49:55;94083.63;;;9.26;81.19
25420;BME280;13354;48.174;11.566;2023-03-14T04:52:21;94076.44;;;9.14;80.71
25420;BME280;13354;48.174;11.566;2023-03-14T04:54:46;94076.28;;;9.09;80.54
25420;BME280;13354;48.174;11.566;2023-03-14T04:57:11;94066.19;;;9.25;79.86
25420;BME280;13354;48.174;11.566;2023-03-14T04:59:36;94059.09;;;9.07;80.48
25420;BME280;13354;48.174;11.566;2023-03-14T05:02:01;94051.44;;;9.17;79.68
25420;BME280;13354;48.174;11.566;2023-03-14T05:04:27;94038.31;;;9.10;79.83
25420;BME280;13354;48.174;11.566;2023-03-14T05:06:52;94040.59;;;9.07;79.72
25420;BME280;13354;48.174;11.566;2023-03-14T05:09:17;94031.41;;;9.09;79.14
25420;BME280;13354;48.174;11.566;2023-03-14T05:11:42;94047.84;;;9.11;79.49
25420;BME280;13354;48.174;11.566;2023-03-14T05:14:07;94042.13;;;9.14;78.70
25420;BME280;13354;48.174;11.566;2023-03-14T05:16:33;94035.88;;;9.09;79.68
25420;BME280;13354;48.174;11.566;2023-03-14T05:18:58;94029.38;;;9.11;79.59
25420;BME280;13354;48.174;11.566;2023-03-14T05:21:23;94039.84;;;9.18;79.78
25420;BME280;13354;48.174;11.566;2023-03-14T05:23:48;94039.25;;;9.16;79.57
25420;BME280;13354;48.174;11.566;2023-03-14T05:26:14;94034.41;;;9.13;79.07
25420;BME280;13354;48.174;11.566;2023-03-14T05:28:41;94033.72;;;9.06;79.81
25420;BME280;13354;48.174;11.566;2023-03-14T05:31:07;94039.84;;;9.18;79.83
25420;BME280;13354;48.174;11.566;2023-03-14T05:33:32;94047.09;;;9.23;79.00
25420;BME280;13354;48.174;11.566;2023-03-14T05:35:57;94049.50;;;9.24;78.57
25420;BME280;13354;48.174;11.566;2023-03-14T05:38:23;94051.34;;;9.24;79.26
25420;BME280;13354;48.174;11.566;2023-03-14T05:40:48;94040.84;;;9.35;78.76
25420;BME280;13354;48.174;11.566;2023-03-14T05:43:13;94044.38;;;9.29;78.87
25420;BME280;13354;48.174;11.566;2023-03-14T05:45:40;94041.25;;;9.21;78.46
25420;BME280;13354;48.174;11.566;2023-03-14T05:48:05;94041.78;;;9.11;79.03
25420;BME280;13354;48.174;11.566;2023-03-14T05:50:30;94049.09;;;9.09;79.25
25420;BME280;13354;48.174;11.566;2023-03-14T05:52:55;94036.25;;;9.12;79.95
25420;BME280;13354;48.174;11.566;2023-03-14T05:55:21;94030.78;;;9.14;79.43
25420;BME280;13354;48.174;11.566;2023-03-14T05:57:46;94037.28;;;9.11;79.27
25420;BME280;13354;48.174;11.566;2023-03-14T06:00:11;94026.22;;;9.21;78.76
25420;BME280;13354;48.174;11.566;2023-03-14T06:02:37;94022.78;;;9.21;78.93
25420;BME280;13354;48.174;11.566;2023-03-14T06:05:02;94023.25;;;9.29;77.81
25420;BME280;13354;48.174;11.566;2023-03-14T06:07:27;94025.09;;;9.29;78.38
25420;BME280;13354;48.174;11.566;2023-03-14T06:09:52;94025.66;;;9.31;77.73
25420;BME280;13354;48.174;11.566;2023-03-14T06:12:17;94024.28;;;9.28;77.51
25420;BME280;13354;48.174;11.566;2023-03-14T06:14:43;94015.28;;;9.17;77.78
25420;BME280;13354;48.174;11.566;2023-03-14T06:17:08;94016.81;;;9.25;77.54
25420;BME280;13354;48.174;11.566;2023-03-14T06:19:33;94014.16;;;9.25;77.91
25420;BME280;13354;48.174;11.566;2023-03-14T06:21:58;94023.81;;;9.31;77.32
25420;BME280;13354;48.174;11.566;2023-03-14T06:24:23;94016.25;;;9.35;77.46
25420;BME280;13354;48.174;11.566;2023-03-14T06:26:49;94019.25;;;9.38;76.96
25420;BME280;13354;48.174;11.566;2023-03-14T06:29:14;94010.97;;;9.35;77.48
25420;BME280;13354;48.174;11.566;2023-03-14T06:31:39;94008.84;;;9.43;77.11
25420;BME280;13354;48.174;11.566;2023-03-14T06:34:04;94008.25;;;9.41;76.31
25420;BME280;13354;48.174;11.566;2023-03-14T06:36:30;93999.97;;;9.38;76.52
25420;BME280;13354;48.174;11.566;2023-03-14T06:38:55;93991.84;;;9.51;76.36
25420;BME280;13354;48.174;11.566;2023-03-14T06:41:20;93980.84;;;9.54;75.70
25420;BME280;13354;48.174;11.566;2023-03-14T06:43:48;93981.19;;;9.58;75.14
25420;BME280;13354;48.174;11.566;2023-03-14T06:46:13;93978.78;;;9.68;74.44
25420;BME280;13354;48.174;11.566;2023-03-14T06:48:40;93977.28;;;9.60;74.71
25420;BME280;13354;48.174;11.566;2023-03-14T06:51:05;93976.97;;;9.68;74.24
25420;BME280;13354;48.174;11.566;2023-03-14T06:53:31;93976.13;;;9.68;73.47
25420;BME280;13354;48.174;11.566;2023-03-14T06:55:56;93989.13;;;9.58;73.50
25420;BME280;13354;48.174;11.566;2023-03-14T06:58:21;93992.34;;;9.72;72.91
25420;BME280;13354;48.174;11.566;2023-03-14T07:00:46;94005.91;;;9.75;72.63
25420;BME280;13354;48.174;11.566;2023-03-14T07:03:12;94006.50;;;9.77;72.61
25420;BME280;13354;48.174;11.566;2023-03-14T07:05:38;94010.72;;;9.66;72.80
25420;BME280;13354;48.174;11.566;2023-03-14T07:08:05;94014.75;;;9.69;72.87
25420;BME280;13354;48.174;11.566;2023-03-14T07:10:30;94026.81;;;9.65;72.39
25420;BME280;13354;48.174;11.566;2023-03-14T07:12:55;94029.66;;;9.63;72.30
25420;BME280;13354;48.174;11.566;2023-03-14T07:15:21;94036.34;;;9.66;72.74
25420;BME280;13354;48.174;11.566;2023-03-14T07:17:46;94028.06;;;9.74;72.67
25420;BME280;13354;48.174;11.566;2023-03-14T07:20:13;94022.22;;;9.72;72.33
25420;BME280;13354;48.174;11.566;2023-03-14T07:22:38;94026.25;;;9.75;72.62
25420;BME280;13354;48.174;11.566;2023-03-14T07:25:03;94022.00;;;9.74;72.21
25420;BME280;13354;48.174;11.566;2023-03-14T07:27:28;94012.91;;;9.70;72.57
25420;BME280;13354;48.174;11.566;2023-03-14T07:29:54;94017.06;;;9.77;72.20
25420;BME280;13354;48.174;11.566;2023-03-14T07:32:19;94014.75;;;9.69;72.59
25420;BME280;13354;48.174;11.566;2023-03-14T07:34:44;94017.16;;;9.82;72.66
25420;BME280;13354;48.174;11.566;2023-03-14T07:37:09;94024.44;;;9.87;72.00
25420;BME280;13354;48.174;11.566;2023-03-14T07:39:35;94016.03;;;9.90;71.29
25420;BME280;13354;48.174;11.566;2023-03-14T07:42:00;94011.78;;;9.89;70.69
25420;BME280;13354;48.174;11.566;2023-03-14T07:44:25;94005.50;;;10.02;70.65
25420;BME280;13354;48.174;11.566;2023-03-14T07:46:50;94005.34;;;9.97;71.09
25420;BME280;13354;48.174;11.566;2023-03-14T07:49:16;94007.31;;;10.01;70.42
25420;BME280;13354;48.174;11.566;2023-03-14T07:51:41;94002.59;;;10.03;69.96
25420;BME280;13354;48.174;11.566;2023-03-14T07:54:06;94004.22;;;10.04;70.21
25420;BME280;13354;48.174;11.566;2023-03-14T07:56:31;93997.41;;;10.08;69.71
25420;BME280;13354;48.174;11.566;2023-03-14T07:58:56;94001.69;;;10.09;70.04
25420;BME280;13354;48.174;11.566;2023-03-14T08:01:22;94004.91;;;10.11;69.75
25420;BME280;13354;48.174;11.566;2023-03-14T08:03:47;94003.84;;;10.12;69.94
25420;BME280;13354;48.174;11.566;2023-03-14T08:06:12;94001.22;;;10.12;70.21
25420;BME280;13354;48.174;11.566;2023-03-14T08:08:37;94002.25;;;10.11;68.95
25420;BME280;13354;48.174;11.566;2023-03-14T08:11:04;94019.44;;;10.32;68.24
25420;BME280;13354;48.174;11.566;2023-03-14T08:13:29;94008.16;;;10.37;68.20
25420;BME280;13354;48.174;11.566;2023-03-14T08:15:54;94014.84;;;10.28;68.84
25420;BME280;13354;48.174;11.566;2023-03-14T08:18:20;94009.06;;;10.43;68.71
25420;BME280;13354;48.174;11.566;2023-03-14T08:20:45;94005.03;;;10.52;68.14
25420;BME280;13354;48.174;11.566;2023-03-14T08:23:10;94013.88;;;10.57;67.97
25420;BME280;13354;48.174;11.566;2023-03-14T08:25:35;94002.91;;;10.77;66.70
25420;BME280;13354;48.174;11.566;2023-03-14T08:28:02;94014.34;;;10.54;67.24
25420;BME280;13354;48.174;11.566;2023-03-14T08:30:27;94015.75;;;10.57;67.70
25420;BME280;13354;48.174;11.566;2023-03-14T08:32:58;94014.03;;;10.39;67.68
25420;BME280;13354;48.174;11.566;2023-03-14T08:35:24;94015.50;;;10.47;67.41
25420;BME280;13354;48.174;11.566;2023-03-14T08:37:50;94022.59;;;10.70;66.46
25420;BME280;13354;48.174;11.566;2023-03-14T08:40:16;94030.44;;;10.64;66.83
25420;BME280;13354;48.174;11.566;2023-03-14T08:42:42;94020.19;;;10.80;66.14
25420;BME280;13354;48.174;11.566;2023-03-14T08:45:08;94019.50;;;10.73;65.89
25420;BME280;13354;48.174;11.566;2023-03-14T08:47:33;94040.00;;;10.66;66.93
25420;BME280;13354;48.174;11.566;2023-03-14T08:49:59;94035.38;;;10.73;66.28
25420;BME280;13354;48.174;11.566;2023-03-14T08:52:24;94038.81;;;10.73;66.83
25420;BME280;13354;48.174;11.566;2023-03-14T08:54:49;94040.44;;;10.74;66.34
25420;BME280;13354;48.174;11.566;2023-03-14T08:57:14;94042.84;;;10.64;66.35
25420;BME280;13354;48.174;11.566;2023-03-14T08:59:40;94050.56;;;10.66;64.98
25420;BME280;13354;48.174;11.566;2023-03-14T09:02:05;94041.38;;;10.68;65.65
25420;BME280;13354;48.174;11.566;2023-03-14T09:04:30;94047.91;;;10.77;65.02
25420;BME280;13354;48.174;11.566;2023-03-14T09:06:56;94057.94;;;10.75;64.94
25420;BME280;13354;48.174;11.566;2023-03-14T09:09:23;94048.16;;;10.64;64.74
25420;BME280;13354;48.174;11.566;2023-03-14T09:11:48;94052.66;;;10.52;65.19
25420;BME280;13354;48.174;11.566;2023-03-14T09:14:13;94053.69;;;10.62;65.01
25420;BME280;13354;48.174;11.566;2023-03-14T09:16:39;94059.44;;;10.59;65.75
25420;BME280;13354;48.174;11.566;2023-03-14T09:19:04;94044.78;;;10.80;65.24
25420;BME280;13354;48.174;11.566;2023-03-14T09:21:30;94042.72;;;10.82;65.26
25420;BME280;13354;48.174;11.566;2023-03-14T09:23:55;94041.47;;;10.73;64.24
25420;BME280;13354;48.174;11.566;2023-03-14T09:26:20;94048.72;;;10.66;64.63
25420;BME280;13354;48.174;11.566;2023-03-14T09:28:46;94041.59;;;10.67;64.19
25420;BME280;13354;48.174;11.566;2023-03-14T09:31:11;94041.72;;;10.60;64.46
25420;BME280;13354;48.174;11.566;2023-03-14T09:33:37;94037.78;;;10.74;64.52
25420;BME280;13354;48.174;11.566;2023-03-14T09:36:02;94041.22;;;10.86;63.81
25420;BME280;13354;48.174;11.566;2023-03-14T09:38:28;94039.84;;;10.84;63.32
25420;BME280;13354;48.174;11.566;2023-03-14T09:40:53;94024.44;;;10.81;63.15
25420;BME280;13354;48.174;11.566;2023-03-14T09:43:19;94030.19;;;10.66;63.25
25420;BME280;13354;48.174;11.566;2023-03-14T09:45:45;94033.63;;;10.78;63.24
25420;BME280;13354;48.174;11.566;2023-03-14T09:48:16;94025.84;;;10.72;63.33
25420;BME280;13354;48.174;11.566;2023-03-14T09:50:54;94027.31;;;10.79;62.15
25420;BME280;13354;48.174;11.566;2023-03-14T09:53:27;94025.94;;;10.77;63.44
25420;BME280;13354;48.174;11.566;2023-03-14T09:55:52;94016.13;;;10.89;62.42
25420;BME280;13354;48.174;11.566;2023-03-14T09:58:20;94015.31;;;10.88;62.47
25420;BME280;13354;48.174;11.566;2023-03-14T10:00:45;94016.91;;;10.89;61.62
25420;BME280;13354;48.174;11.566;2023-03-14T10:05:36;94012.28;;;10.97;61.64
25420;BME280;13354;48.174;11.566;2023-03-14T10:08:01;94014.81;;;11.03;62.04
25420;BME280;13354;48.174;11.566;2023-03-14T10:10:26;94014.59;;;11.05;61.89
25420;BME280;13354;48.174;11.566;2023-03-14T10:12:56;94014.34;;;11.06;62.25
25420;BME280;13354;48.174;11.566;2023-03-14T10:15:26;94009.81;;;11.19;62.10
25420;BME280;13354;48.174;11.566;2023-03-14T10:17:54;94005.22;;;11.14;62.21
25420;BME280;13354;48.174;11.566;2023-03-14T10:20:29;94008.63;;;11.26;61.84
25420;BME280;13354;48.174;11.566;2023-03-14T10:22:59;94005.28;;;11.31;62.14
25420;BME280;13354;48.174;11.566;2023-03-14T10:25:31;94010.28;;;11.44;61.44
25420;BME280;13354;48.174;11.566;2023-03-14T10:27:57;94010.63;;;11.93;60.51
25420;BME280;13354;48.174;11.566;2023-03-14T10:30:27;93993.34;;;12.46;58.51
25420;BME280;13354;48.174;11.566;2023-03-14T10:32:54;93975.28;;;12.87;57.67
25420;BME280;13354;48.174;11.566;2023-03-14T10:35:20;93980.13;;;12.68;55.79
25420;BME280;13354;48.174;11.566;2023-03-14T10:37:50;93991.22;;;12.65;55.73
25420;BME280;13354;48.174;11.566;2023-03-14T10:40:16;93996.47;;;12.60;56.32
25420;BME280;13354;48.174;11.566;2023-03-14T10:42:42;93998.44;;;12.70;56.66
25420;BME280;13354;48.174;11.566;2023-03-14T10:45:22;93985.00;;;12.98;55.68
25420;BME280;13354;48.174;11.566;2023-03-14T10:47:51;93998.09;;;12.83;56.43
25420;BME280;13354;48.174;11.566;2023-03-14T10:50:23;94004.69;;;12.80;55.73
25420;BME280;13354;48.174;11.566;2023-03-14T10:52:51;93990.38;;;12.81;54.42
25420;BME280;13354;48.174;11.566;2023-03-14T10:55:17;93993.50;;;12.56;54.98
25420;BME280;13354;48.174;11.566;2023-03-14T10:57:42;94001.38;;;12.51;54.88
25420;BME280;13354;48.174;11.566;2023-03-14T11:00:15;94000.78;;;12.27;55.22
25420;BME280;13354;48.174;11.566;2023-03-14T11:02:45;93994.13;;;12.25;55.73
25420;BME280;13354;48.174;11.566;2023-03-14T11:05:29;94001.84;;;12.26;56.07
25420;BME280;13354;48.174;11.566;2023-03-14T11:07:59;94005.63;;;12.30;56.63
25420;BME280;13354;48.174;11.566;2023-03-14T11:10:33;93996.13;;;12.35;55.68
25420;BME280;13354;48.174;11.566;2023-03-14T11:20:50;93996.28;;;12.45;55.29
25420;BME280;13354;48.174;11.566;2023-03-14T11:31:00;93982.50;;;12.70;53.34
25420;BME280;13354;48.174;11.566;2023-03-14T11:33:37;93968.88;;;12.83;53.38
25420;BME280;13354;48.174;11.566;2023-03-14T11:36:21;93989.56;;;12.81;52.96
25420;BME280;13354;48.174;11.566;2023-03-14T11:38:52;93982.50;;;12.92;53.27
25420;BME280;13354;48.174;11.566;2023-03-14T11:41:22;93982.94;;;12.84;53.43
25420;BME280;13354;48.174;11.566;2023-03-14T11:43:48;93987.09;;;12.96;52.82
25420;BME280;13354;48.174;11.566;2023-03-14T11:46:23;93974.06;;;12.95;53.47
25420;BME280;13354;48.174;11.566;2023-03-14T11:51:29;93963.25;;;12.79;53.32
25420;BME280;13354;48.174;11.566;2023-03-14T11:59:27;93961.88;;;12.77;53.59
25420;BME280;13354;48.174;11.566;2023-03-14T12:01:57;93962.16;;;12.75;53.62
25420;BME280;13354;48.174;11.566;2023-03-14T12:04:31;93969.72;;;12.45;54.32
25420;BME280;13354;48.174;11.566;2023-03-14T12:07:03;93975.47;;;12.58;54.10
25420;BME280;13354;48.174;11.566;2023-03-14T12:09:31;93961.03;;;12.71;53.20
25420;BME280;13354;48.174;11.566;2023-03-14T12:11:57;93965.91;;;12.57;53.54
25420;BME280;13354;48.174;11.566;2023-03-14T12:14:25;93976.16;;;12.71;52.52
25420;BME280;13354;48.174;11.566;2023-03-14T12:16:55;93965.28;;;12.72;52.70
25420;BME280;13354;48.174;11.566;2023-03-14T12:21:55;93970.03;;;12.48;52.97
25420;BME280;13354;48.174;11.566;2023-03-14T12:24:22;93960.53;;;12.52;53.20
25420;BME280;13354;48.174;11.566;2023-03-14T12:26:52;93962.56;;;12.45;53.42
25420;BME280;13354;48.174;11.566;2023-03-14T12:29:17;93965.22;;;12.45;54.01
25420;BME280;13354;48.174;11.566;2023-03-14T12:39:22;93962.94;;;12.54;53.91
25420;BME280;13354;48.174;11.566;2023-03-14T12:42:00;93958.13;;;12.51;54.06
25420;BME280;13354;48.174;11.566;2023-03-14T12:46:56;93959.22;;;12.77;53.17
25420;BME280;13354;48.174;11.566;2023-03-14T12:49:21;93961.47;;;13.07;53.08
25420;BME280;13354;48.174;11.566;2023-03-14T12:51:58;93949.63;;;12.93;52.81
25420;BME280;13354;48.174;11.566;2023-03-14T12:54:35;93988.34;;;12.67;52.87
25420;BME280;13354;48.174;11.566;2023-03-14T13:04:37;93973.28;;;12.55;54.41
25420;BME280;13354;48.174;11.566;2023-03-14T13:09:53;93994.84;;;12.37;55.20
25420;BME280;13354;48.174;11.566;2023-03-14T13:12:22;94000.94;;;12.38;55.20
25420;BME280;13354;48.174;11.566;2023-03-14T13:14:49;93981.84;;;12.19;55.04
25420;BME280;13354;48.174;11.566;2023-03-14T13:17:19;93995.00;;;12.30;54.94
25420;BME280;13354;48.174;11.566;2023-03-14T13:19:50;93989.69;;;12.30;55.15
25420;BME280;13354;48.174;11.566;2023-03-14T13:22:17;94002.09;;;12.08;55.45
25420;BME280;13354;48.174;11.566;2023-03-14T13:24:44;93993.56;;;12.06;55.43
25420;BME280;13354;48.174;11.566;2023-03-14T13:27:17;94010.22;;;12.01;55.88
25420;BME280;13354;48.174;11.566;2023-03-14T13:29:43;93985.22;;;11.97;56.26
25420;BME280;13354;48.174;11.566;2023-03-14T13:32:21;94016.28;;;11.85;56.55
25420;BME280;13354;48.174;11.566;2023-03-14T13:34:47;94031.19;;;11.74;58.26
25420;BME280;13354;48.174;11.566;2023-03-14T13:39:41;94060.19;;;11.64;59.60
25420;BME280;13354;48.174;11.566;2023-03-14T13:42:10;94033.72;;;11.52;61.07
25420;BME280;13354;48.174;11.566;2023-03-14T13:44:38;94065.75;;;11.22;61.79
25420;BME280;13354;48.174;11.566;2023-03-14T13:47:04;94059.09;;;11.20;62.52
25420;BME280;13354;48.174;11.566;2023-03-14T13:49:30;94073.53;;;11.12;62.31
25420;BME280;13354;48.174;11.566;2023-03-14T13:51:57;94078.38;;;10.92;61.67
25420;BME280;13354;48.174;11.566;2023-03-14T13:54:22;94074.81;;;10.86;61.88